Time;durP1;ratioP1;P1;durP2;ratioP2;P2;SDS_P1;SDS_P2;PMS_P1;PMS_P2;Temp;Humidity;BMP_temperature;BMP_pressure;BME280_temperature;BME280_humidity;BME280_pressure;Samples;Min_cycle;Max_cycle;Signal;HPM_P1;HPM_P2
2023/04/09 00:01:31;;;;;;;40.50;30.27;;;8.60;83.60;;;;;;5096840;28;20215;-72
2023/04/09 00:03:57;;;;;;;39.07;28.80;;;8.40;86.80;;;;;;5096813;28;20164;-72
2023/04/09 00:06:26;;;;;;;38.17;29.07;;;8.40;90.70;;;;;;5096646;28;20172;-72
2023/04/09 00:08:51;;;;;;;40.57;29.70;;;8.40;90.10;;;;;;5096769;28;20174;-72
2023/04/09 00:11:17;;;;;;;37.23;29.33;;;8.40;91.20;;;;;;5096665;28;20180;-72
2023/04/09 00:13:42;;;;;;;44.30;31.77;;;8.30;91.50;;;;;;5096663;28;20166;-72
2023/04/09 00:16:11;;;;;;;40.67;30.53;;;8.30;94.00;;;;;;5096355;28;20184;-72
2023/04/09 00:18:36;;;;;;;40.97;30.47;;;8.30;95.80;;;;;;5096031;28;20636;-72
2023/04/09 00:21:02;;;;;;;40.77;29.03;;;8.30;95.10;;;;;;5096068;28;20206;-72
2023/04/09 00:23:28;;;;;;;41.33;29.33;;;8.20;95.00;;;;;;5096704;28;20248;-72
2023/04/09 00:25:53;;;;;;;40.17;30.00;;;8.20;95.50;;;;;;5094916;28;20176;-72
2023/04/09 00:28:19;;;;;;;40.37;29.80;;;8.20;96.00;;;;;;5096553;28;20647;-72
2023/04/09 00:30:45;;;;;;;39.80;30.07;;;8.20;96.40;;;;;;5096196;28;20262;-72
2023/04/09 00:33:10;;;;;;;39.37;30.23;;;8.20;97.70;;;;;;5096177;28;20658;-72
2023/04/09 00:35:36;;;;;;;37.83;29.10;;;8.10;97.50;;;;;;5095977;28;20172;-71
2023/04/09 00:38:04;;;;;;;38.83;30.23;;;8.10;95.80;;;;;;5095893;28;20220;-72
2023/04/09 00:40:33;;;;;;;42.57;30.30;;;8.20;93.10;;;;;;5094780;28;20287;-73
2023/04/09 00:42:59;;;;;;;39.73;29.70;;;8.10;92.70;;;;;;5096390;28;20202;-72
2023/04/09 00:45:25;;;;;;;41.07;30.40;;;8.10;92.40;;;;;;5096030;28;20164;-72
2023/04/09 00:47:51;;;;;;;42.70;29.03;;;8.10;94.70;;;;;;5095940;28;20225;-71
2023/04/09 00:50:16;;;;;;;40.80;30.43;;;8.10;96.00;;;;;;5095995;28;20229;-72
2023/04/09 00:52:42;;;;;;;43.70;31.87;;;8.00;97.70;;;;;;5095993;28;20172;-72
2023/04/09 00:55:09;;;;;;;40.23;30.17;;;7.90;98.80;;;;;;5094470;28;20229;-71
2023/04/09 00:57:34;;;;;;;39.13;30.20;;;7.90;99.90;;;;;;5096110;28;20172;-72
2023/04/09 01:00:06;;;;;;;41.00;31.00;;;7.90;99.90;;;;;;5095068;28;20156;-72
2023/04/09 01:02:31;;;;;;;41.30;31.20;;;7.80;99.90;;;;;;5095625;28;20180;-72
2023/04/09 01:04:57;;;;;;;40.47;31.50;;;7.80;99.90;;;;;;5094374;28;20604;-72
2023/04/09 01:07:58;;;;;;;43.00;30.20;;;7.80;99.90;;;;;;5095612;28;20215;-72
2023/04/09 01:10:55;;;;;;;41.13;31.30;;;7.70;99.90;;;;;;5095525;28;20255;-72
2023/04/09 01:13:34;;;;;;;40.40;29.83;;;7.70;99.90;;;;;;5095817;28;20195;-71
2023/04/09 01:16:02;;;;;;;40.00;30.50;;;7.60;99.90;;;;;;5095459;28;20167;-71
2023/04/09 01:18:58;;;;;;;43.70;30.77;;;7.60;99.90;;;;;;5095265;28;20196;-71
2023/04/09 01:21:28;;;;;;;41.03;30.03;;;7.50;99.90;;;;;;5095475;28;20204;-71
2023/04/09 01:24:18;;;;;;;41.87;29.87;;;7.50;99.90;;;;;;5093987;28;20246;-71
2023/04/09 01:26:56;;;;;;;41.33;30.97;;;7.50;99.90;;;;;;5093844;28;20224;-71
2023/04/09 01:29:25;;;;;;;43.80;30.87;;;7.50;99.90;;;;;;5095387;28;20659;-71
2023/04/09 01:31:52;;;;;;;44.17;31.13;;;7.50;99.90;;;;;;5094879;28;20164;-71
2023/04/09 01:34:21;;;;;;;43.43;31.83;;;7.50;99.90;;;;;;5095416;28;20160;-71
2023/04/09 01:36:56;;;;;;;42.00;32.07;;;7.50;99.90;;;;;;5094522;28;20175;-71
2023/04/09 01:39:22;;;;;;;39.10;30.40;;;7.40;99.90;;;;;;5095203;28;20172;-71
2023/04/09 01:41:49;;;;;;;44.90;30.87;;;7.40;99.90;;;;;;5094990;28;20257;-71
2023/04/09 01:44:16;;;;;;;42.97;31.33;;;7.40;99.90;;;;;;5095142;28;20190;-71
2023/04/09 01:46:42;;;;;;;43.60;31.53;;;7.30;99.90;;;;;;5094527;28;20175;-72
2023/04/09 01:49:09;;;;;;;40.67;30.00;;;7.30;99.90;;;;;;5094867;28;20172;-72
2023/04/09 01:51:36;;;;;;;44.30;31.47;;;7.40;99.90;;;;;;5094695;28;20199;-71
2023/04/09 01:54:04;;;;;;;44.53;31.70;;;7.30;99.90;;;;;;5095066;28;20639;-72
2023/04/09 01:56:46;;;;;;;41.23;29.80;;;7.30;99.90;;;;;;5094603;28;20524;-72
2023/04/09 01:59:13;;;;;;;41.53;30.40;;;7.30;99.90;;;;;;5093521;28;20215;-72
2023/04/09 02:01:48;;;;;;;41.00;31.07;;;7.30;99.90;;;;;;5092841;28;20208;-72
2023/04/09 02:04:31;;;;;;;42.50;31.73;;;7.30;99.90;;;;;;5094650;28;20175;-72
2023/04/09 02:07:20;;;;;;;41.70;31.50;;;7.30;99.90;;;;;;5094406;28;20689;-71
2023/04/09 02:09:47;;;;;;;40.27;30.77;;;7.40;99.90;;;;;;5083621;28;20207;-72
2023/04/09 02:12:17;;;;;;;43.10;31.93;;;7.40;99.90;;;;;;5092285;28;20179;-72
2023/04/09 02:14:45;;;;;;;41.00;29.57;;;7.30;99.90;;;;;;5094091;28;20635;-71
2023/04/09 02:17:14;;;;;;;42.33;31.37;;;7.30;99.90;;;;;;5094316;28;20191;-72
2023/04/09 02:19:45;;;;;;;40.20;30.50;;;7.20;99.90;;;;;;5094547;28;20171;-72
2023/04/09 02:22:12;;;;;;;39.97;29.80;;;7.20;99.90;;;;;;5094282;28;20559;-71
2023/04/09 02:24:39;;;;;;;42.47;29.97;;;7.10;99.90;;;;;;5094330;28;20171;-71
2023/04/09 02:27:05;;;;;;;39.87;30.37;;;7.10;99.90;;;;;;5093975;28;20559;-71
2023/04/09 02:29:31;;;;;;;43.67;31.83;;;7.10;99.90;;;;;;5094164;28;20214;-72
2023/04/09 02:31:57;;;;;;;42.60;31.93;;;7.20;99.90;;;;;;5092654;28;20678;-71
2023/04/09 02:34:23;;;;;;;48.80;32.20;;;7.20;99.90;;;;;;5094237;28;20164;-71
2023/04/09 02:36:49;;;;;;;43.30;32.10;;;7.20;99.90;;;;;;5093578;28;20706;-72
2023/04/09 02:39:14;;;;;;;42.40;31.80;;;7.30;99.90;;;;;;5093976;28;20176;-70
2023/04/09 02:41:40;;;;;;;45.07;32.13;;;7.20;99.90;;;;;;5093790;28;20294;-71
2023/04/09 02:44:06;;;;;;;41.90;30.70;;;7.20;99.90;;;;;;5093667;28;20685;-71
2023/04/09 02:46:35;;;;;;;47.50;32.63;;;7.20;99.90;;;;;;5093752;28;20178;-70
2023/04/09 02:49:03;;;;;;;48.13;33.57;;;7.10;99.90;;;;;;5093825;28;20178;-70
2023/04/09 02:51:29;;;;;;;51.77;32.70;;;7.20;99.90;;;;;;5093509;28;20260;-71
2023/04/09 02:53:54;;;;;;;51.80;32.97;;;7.30;99.90;;;;;;5092595;28;20639;-72
2023/04/09 02:56:20;;;;;;;45.90;33.17;;;7.20;99.90;;;;;;5093651;28;20251;-72
2023/04/09 02:58:48;;;;;;;45.47;33.00;;;7.20;99.90;;;;;;5093199;28;20558;-72
2023/04/09 03:01:13;;;;;;;47.90;32.53;;;7.20;99.90;;;;;;5092021;28;20211;-72
2023/04/09 03:03:42;;;;;;;48.20;32.80;;;7.10;99.90;;;;;;5093554;28;20229;-72
2023/04/09 03:06:08;;;;;;;48.70;33.33;;;7.10;99.90;;;;;;5093294;28;20174;-71
2023/04/09 03:08:33;;;;;;;50.03;33.23;;;7.10;99.90;;;;;;5093490;28;20251;-72
2023/04/09 03:10:59;;;;;;;52.33;32.07;;;7.20;99.90;;;;;;5093436;28;20206;-71
2023/04/09 03:13:27;;;;;;;51.97;34.57;;;7.10;99.90;;;;;;5092957;28;20619;-71
2023/04/09 03:15:52;;;;;;;59.20;37.80;;;7.10;99.90;;;;;;5093242;28;20212;-71
2023/04/09 03:18:18;;;;;;;59.80;39.53;;;7.10;99.90;;;;;;5093085;28;20240;-71
2023/04/09 03:20:44;;;;;;;67.00;38.80;;;7.10;99.90;;;;;;5093118;28;20213;-71
2023/04/09 03:23:10;;;;;;;69.50;40.80;;;7.20;99.90;;;;;;5091459;28;20171;-72
2023/04/09 03:25:36;;;;;;;63.47;38.97;;;7.30;99.90;;;;;;5093271;28;20631;-71
2023/04/09 03:28:02;;;;;;;64.97;40.97;;;7.30;99.90;;;;;;5091349;28;20175;-72
2023/04/09 03:30:28;;;;;;;67.27;41.37;;;7.30;99.90;;;;;;5093309;28;20218;-72
2023/04/09 03:32:53;;;;;;;68.13;42.10;;;7.40;99.90;;;;;;5092823;28;20564;-71
2023/04/09 03:35:22;;;;;;;71.27;43.63;;;7.40;99.90;;;;;;5092763;28;20202;-71
2023/04/09 03:37:47;;;;;;;69.20;42.43;;;7.40;99.90;;;;;;5092519;28;20211;-71
2023/04/09 03:40:16;;;;;;;71.27;41.63;;;7.50;99.90;;;;;;5091898;28;20171;-71
2023/04/09 03:42:42;;;;;;;64.57;39.70;;;7.50;99.90;;;;;;5092331;28;20183;-71
2023/04/09 03:45:08;;;;;;;70.37;43.10;;;7.50;99.90;;;;;;5092768;28;20615;-72
2023/04/09 03:47:34;;;;;;;69.90;43.73;;;7.50;99.90;;;;;;5092647;28;20233;-72
2023/04/09 03:50:00;;;;;;;67.47;40.03;;;7.60;99.90;;;;;;5092876;28;20654;-71
2023/04/09 03:52:25;;;;;;;74.40;44.23;;;7.60;99.90;;;;;;5092670;28;20191;-72
2023/04/09 03:54:53;;;;;;;72.17;44.13;;;7.60;99.90;;;;;;5092854;28;20179;-71
2023/04/09 03:57:19;;;;;;;68.23;42.57;;;7.60;99.90;;;;;;5092311;28;20160;-72
2023/04/09 03:59:44;;;;;;;70.50;43.37;;;7.60;99.90;;;;;;5092943;28;20178;-72
2023/04/09 04:02:10;;;;;;;73.30;43.97;;;7.50;99.90;;;;;;5092454;28;20199;-71
2023/04/09 04:04:36;;;;;;;76.60;44.80;;;7.50;99.90;;;;;;5092451;28;20715;-72
2023/04/09 04:07:02;;;;;;;73.47;44.03;;;7.50;99.90;;;;;;5092340;28;20206;-71
2023/04/09 04:09:28;;;;;;;77.73;43.83;;;7.40;99.90;;;;;;5092855;28;20259;-71
2023/04/09 04:11:55;;;;;;;78.10;45.10;;;7.40;99.90;;;;;;5092193;28;20257;-71
2023/04/09 04:14:21;;;;;;;75.90;45.57;;;7.40;99.90;;;;;;5092682;28;20160;-71
2023/04/09 04:16:47;;;;;;;70.10;42.10;;;7.50;99.90;;;;;;5092579;28;20194;-71
2023/04/09 04:19:12;;;;;;;71.17;42.57;;;7.40;99.90;;;;;;5092506;28;20168;-71
2023/04/09 04:21:38;;;;;;;65.77;40.50;;;7.40;99.90;;;;;;5092337;28;20666;-71
2023/04/09 04:24:04;;;;;;;70.17;41.30;;;7.30;99.90;;;;;;5092829;28;20179;-71
2023/04/09 04:26:30;;;;;;;78.33;46.10;;;7.30;99.90;;;;;;5092145;28;20191;-72
2023/04/09 04:28:56;;;;;;;71.40;43.67;;;7.30;99.90;;;;;;5092278;28;20255;-72
2023/04/09 04:31:24;;;;;;;79.17;47.07;;;7.30;99.90;;;;;;5093168;28;20582;-73
2023/04/09 04:33:50;;;;;;;73.20;45.37;;;7.30;99.90;;;;;;5093179;28;20168;-71
2023/04/09 04:36:15;;;;;;;80.87;47.37;;;7.30;99.90;;;;;;5096383;28;20168;-72
2023/04/09 04:38:41;;;;;;;77.50;45.53;;;7.30;99.90;;;;;;5095549;28;20215;-72
2023/04/09 04:41:28;;;;;;;78.43;48.20;;;7.20;99.90;;;;;;5094566;28;20207;-71
2023/04/09 04:43:54;;;;;;;76.37;45.23;;;7.20;99.90;;;;;;5095353;28;20268;-71
2023/04/09 04:46:19;;;;;;;77.93;46.07;;;7.10;99.90;;;;;;5096021;28;20206;-71
2023/04/09 04:48:48;;;;;;;80.80;48.37;;;7.10;99.90;;;;;;5095446;28;20571;-71
2023/04/09 04:51:13;;;;;;;78.80;47.27;;;7.20;99.90;;;;;;5096087;28;20519;-71
2023/04/09 04:53:39;;;;;;;83.33;48.10;;;7.20;99.90;;;;;;5095611;28;20172;-71
2023/04/09 04:56:05;;;;;;;85.57;48.83;;;7.20;99.90;;;;;;5095649;28;20172;-71
2023/04/09 04:58:33;;;;;;;76.57;46.30;;;7.20;99.90;;;;;;5095192;28;20709;-71
2023/04/09 05:00:59;;;;;;;82.57;47.90;;;7.20;99.90;;;;;;5095838;28;20207;-72
2023/04/09 05:03:25;;;;;;;82.87;46.83;;;7.20;99.90;;;;;;5096011;28;20176;-71
2023/04/09 05:05:56;;;;;;;78.97;45.80;;;7.10;99.90;;;;;;5095510;28;20528;-71
2023/04/09 05:08:22;;;;;;;82.90;48.37;;;7.10;99.90;;;;;;5095098;28;20287;-72
2023/04/09 05:10:54;;;;;;;86.77;47.47;;;7.10;99.90;;;;;;5095410;28;20202;-71
2023/04/09 05:13:20;;;;;;;86.33;49.40;;;7.10;99.90;;;;;;5095060;28;20168;-71
2023/04/09 05:15:46;;;;;;;88.70;49.40;;;7.10;99.90;;;;;;5095523;28;20654;-71
2023/04/09 05:18:11;;;;;;;84.20;47.80;;;7.20;99.90;;;;;;5095293;28;20179;-71
2023/04/09 05:20:37;;;;;;;84.73;47.93;;;7.20;99.90;;;;;;5095083;28;20198;-71
2023/04/09 05:23:05;;;;;;;78.03;47.53;;;7.20;99.90;;;;;;5094745;28;20567;-71
2023/04/09 05:25:30;;;;;;;84.07;48.37;;;7.30;99.90;;;;;;5095506;28;20631;-70
2023/04/09 05:27:56;;;;;;;84.53;48.47;;;7.50;99.90;;;;;;5094819;28;20176;-70
2023/04/09 05:30:22;;;;;;;76.63;47.77;;;7.80;99.90;;;;;;5095279;28;20696;-71
2023/04/09 05:32:47;;;;;;;78.07;47.13;;;8.00;99.90;;;;;;5093665;28;20686;-71
2023/04/09 05:35:13;;;;;;;76.70;48.37;;;8.10;99.90;;;;;;5095269;28;20172;-71
2023/04/09 05:37:39;;;;;;;63.37;42.90;;;8.40;99.90;;;;;;5093034;28;20236;-72
2023/04/09 05:40:11;;;;;;;64.37;42.27;;;8.80;99.90;;;;;;5094817;28;20171;-73
2023/04/09 05:42:36;;;;;;;67.53;43.80;;;8.90;99.90;;;;;;5095016;28;20643;-72
2023/04/09 05:45:02;;;;;;;70.43;44.40;;;9.10;99.90;;;;;;5094737;28;20171;-72
2023/04/09 05:47:28;;;;;;;67.73;43.67;;;9.20;99.90;;;;;;5095004;28;20207;-72
2023/04/09 05:49:54;;;;;;;63.87;43.40;;;9.00;99.90;;;;;;5093323;28;20571;-71
2023/04/09 05:52:20;;;;;;;68.37;43.47;;;8.90;99.90;;;;;;5094533;28;20567;-71
2023/04/09 05:54:48;;;;;;;64.00;43.60;;;8.90;99.90;;;;;;5094052;28;20194;-72
2023/04/09 05:57:14;;;;;;;61.07;40.77;;;9.30;99.90;;;;;;5094576;28;20179;-73
2023/04/09 05:59:39;;;;;;;65.33;40.73;;;9.90;97.50;;;;;;5093129;28;20176;-73
2023/04/09 06:02:05;;;;;;;58.17;42.03;;;10.30;71.20;;;;;;5093260;28;20222;-73
2023/04/09 06:04:31;;;;;;;59.10;42.07;;;10.90;57.80;;;;;;5094464;28;20222;-73
2023/04/09 06:06:59;;;;;;;59.53;40.73;;;11.30;28.30;;;;;;5094034;28;20647;-73
2023/04/09 06:09:26;;;;;;;56.03;39.47;;;12.10;14.20;;;;;;5093937;28;20290;-75
2023/04/09 06:11:51;;;;;;;52.87;38.03;;;12.50;1.00;;;;;;5094483;28;20697;-74
2023/04/09 06:14:17;;;;;;;50.10;37.93;;;13.40;1.00;;;;;;5094095;28;20160;-73
2023/04/09 06:16:42;;;;;;;47.83;36.30;;;13.70;1.00;;;;;;5094232;28;20264;-73
2023/04/09 06:19:11;;;;;;;48.33;37.17;;;14.20;1.00;;;;;;5093633;28;20163;-73
2023/04/09 06:21:37;;;;;;;48.67;38.10;;;14.50;1.00;;;;;;5093819;28;20292;-73
2023/04/09 06:24:02;;;;;;;50.17;39.27;;;14.90;1.00;;;;;;5093697;28;20207;-73
2023/04/09 06:26:28;;;;;;;47.57;37.60;;;15.00;1.00;;;;;;5093632;28;20683;-74
2023/04/09 06:28:53;;;;;;;48.30;39.23;;;15.60;1.00;;;;;;5093644;28;20171;-73
2023/04/09 06:31:21;;;;;;;47.57;39.20;;;16.10;99.90;;;;;;5094006;28;20635;-74
2023/04/09 06:33:47;;;;;;;45.63;38.65;;;17.20;1.00;;;;;;5093711;28;20711;-73
2023/04/09 06:36:13;;;;;;;44.13;37.90;;;16.70;99.90;;;;;;5093593;28;20259;-73
2023/04/09 06:38:38;;;;;;;47.53;39.35;;;17.40;1.00;;;;;;5091464;28;20223;-75
2023/04/09 06:41:07;;;;;;;47.65;38.63;;;17.50;1.00;;;;;;5093550;28;20239;-74
2023/04/09 06:43:33;;;;;;;46.97;38.30;;;18.40;1.00;;;;;;5093865;28;20229;-74
2023/04/09 06:46:02;;;;;;;46.80;38.55;;;19.40;1.00;;;;;;5093723;28;20204;-75
2023/04/09 06:48:28;;;;;;;43.25;36.72;;;20.10;28.10;;;;;;5093617;28;20168;-74
2023/04/09 06:50:54;;;;;;;44.00;36.65;;;20.20;1.00;;;;;;5093201;28;20599;-74
2023/04/09 06:53:25;;;;;;;42.53;37.22;;;20.40;1.00;;;;;;5093556;28;20674;-74
2023/04/09 06:55:51;;;;;;;43.05;36.90;;;20.20;1.00;;;;;;5093476;28;20275;-73
2023/04/09 06:58:17;;;;;;;40.65;36.20;;;20.20;1.00;;;;;;5092645;28;20199;-74
2023/04/09 07:01:03;;;;;;;42.67;36.70;;;20.20;1.00;;;;;;5093446;28;20226;-73
2023/04/09 07:03:28;;;;;;;41.33;36.88;;;21.30;99.90;;;;;;5091677;28;20179;-75
2023/04/09 07:05:55;;;;;;;42.35;36.75;;;21.90;1.00;;;;;;5093013;28;20619;-74
2023/04/09 07:08:22;;;;;;;44.00;38.55;;;22.30;1.00;;;;;;5093216;28;20497;-74
2023/04/09 07:10:48;;;;;;;45.92;39.55;;;21.80;1.00;;;;;;5091608;28;20168;-74
2023/04/09 07:13:13;;;;;;;41.53;36.03;;;22.20;1.00;;;;;;5092902;28;20172;-74
2023/04/09 07:15:39;;;;;;;43.75;36.47;;;21.70;1.00;;;;;;5092992;28;20213;-74
2023/04/09 07:18:05;;;;;;;42.08;35.03;;;21.90;1.00;;;;;;5092165;28;20229;-74
2023/04/09 07:20:30;;;;;;;40.80;34.60;;;22.10;1.00;;;;;;5092395;28;20176;-73
2023/04/09 07:22:56;;;;;;;40.20;34.15;;;21.70;1.00;;;;;;5092884;28;20179;-74
2023/04/09 07:25:22;;;;;;;39.20;32.97;;;22.20;1.00;;;;;;5092355;28;20251;-74
2023/04/09 07:27:48;;;;;;;38.28;34.20;;;22.70;1.00;;;;;;5093008;28;20168;-74
2023/04/09 07:30:20;;;;;;;38.90;33.28;;;22.80;1.00;;;;;;5093157;28;20238;-75
2023/04/09 07:32:46;;;;;;;38.53;33.13;;;23.30;1.00;;;;;;5092190;28;20628;-76
2023/04/09 07:35:11;;;;;;;37.95;33.85;;;22.90;99.90;;;;;;5092077;28;20221;-76
2023/04/09 07:37:40;;;;;;;36.38;32.40;;;22.30;1.00;;;;;;5092905;28;20298;-75
2023/04/09 07:40:07;;;;;;;37.28;33.30;;;21.90;1.00;;;;;;5092781;28;20198;-73
2023/04/09 07:42:32;;;;;;;36.90;32.90;;;20.40;1.00;;;;;;5092620;28;20213;-74
2023/04/09 07:44:59;;;;;;;34.33;30.63;;;20.20;99.90;;;;;;5092313;28;20274;-74
2023/04/09 07:47:25;;;;;;;39.38;33.30;;;20.60;57.80;;;;;;5092953;28;20180;-74
2023/04/09 07:49:51;;;;;;;38.15;32.75;;;20.90;1.00;;;;;;5092383;28;20163;-75
2023/04/09 07:52:17;;;;;;;36.15;31.80;;;21.10;1.00;;;;;;5092789;28;20220;-75
2023/04/09 07:54:42;;;;;;;37.47;33.22;;;22.40;1.00;;;;;;5092447;28;20168;-75
2023/04/09 07:57:11;;;;;;;38.70;32.65;;;21.50;1.00;;;;;;5091957;28;20632;-75
2023/04/09 07:59:37;;;;;;;36.53;31.55;;;22.50;1.00;;;;;;5092373;28;20191;-76
2023/04/09 08:02:02;;;;;;;35.20;31.30;;;22.40;1.00;;;;;;5091270;28;20230;-76
2023/04/09 08:04:28;;;;;;;35.13;31.33;;;22.80;1.00;;;;;;5091857;28;20492;-75
2023/04/09 08:06:53;;;;;;;36.30;31.80;;;23.40;99.90;;;;;;5092571;28;20237;-76
2023/04/09 08:09:20;;;;;;;34.30;30.60;;;23.10;99.90;;;;;;5092662;28;20179;-76
2023/04/09 08:11:46;;;;;;;38.40;32.13;;;21.10;1.00;;;;;;5096641;28;20172;-76
2023/04/09 08:14:13;;;;;;;39.15;33.00;;;20.00;99.90;;;;;;5096234;28;20179;-74
2023/04/09 08:16:43;;;;;;;36.60;31.77;;;20.10;99.90;;;;;;5096322;28;20179;-77
2023/04/09 08:19:09;;;;;;;34.17;30.40;;;20.40;99.90;;;;;;5095511;28;20604;-76
2023/04/09 08:21:41;;;;;;;41.55;31.92;;;21.50;1.00;;;;;;5095831;28;20245;-76
2023/04/09 08:24:10;;;;;;;35.33;31.00;;;22.80;1.00;;;;;;5096250;28;20503;-77
2023/04/09 08:26:36;;;;;;;38.15;32.30;;;24.20;99.90;;;;;;5096176;28;20619;-76
2023/04/09 08:29:02;;;;;;;36.60;31.88;;;25.80;99.90;;;;;;5095887;28;20180;-77
2023/04/09 08:31:27;;;;;;;35.80;30.70;;;25.90;99.90;;;;;;5095460;28;20217;-76
2023/04/09 08:33:53;;;;;;;34.28;30.58;;;26.10;99.90;;;;;;5096000;28;20168;-77
2023/04/09 08:36:20;;;;;;;34.03;30.42;;;25.80;99.90;;;;;;5095439;28;20207;-77
2023/04/09 08:38:48;;;;;;;34.67;29.98;;;25.90;99.90;;;;;;5095631;28;20216;-79
2023/04/09 08:41:20;;;;;;;30.90;27.50;;;24.50;99.90;;;;;;5095858;28;20206;-78
2023/04/09 08:43:47;;;;;;;32.13;28.58;;;25.00;99.90;;;;;;5095927;28;20659;-78
2023/04/09 08:46:16;;;;;;;31.48;28.08;;;26.40;99.90;;;;;;5095383;28;20258;-76
2023/04/09 08:48:47;;;;;;;31.63;28.15;;;25.80;99.90;;;;;;5095068;28;20569;-77
2023/04/09 08:51:20;;;;;;;32.05;28.75;;;26.30;99.90;;;;;;5095700;28;20172;-77
2023/04/09 08:53:55;;;;;;;30.10;26.88;;;26.20;99.90;;;;;;5095140;28;20305;-77
2023/04/09 08:56:21;;;;;;;27.63;24.65;;;27.10;99.90;;;;;;5095724;28;20295;-79
2023/04/09 08:58:48;;;;;;;25.45;22.73;;;26.80;99.90;;;;;;5095410;28;20176;-77
2023/04/09 09:01:30;;;;;;;25.95;23.25;;;27.10;99.90;;;;;;5094771;28;20701;-79
2023/04/09 09:04:02;;;;;;;26.88;24.08;;;27.90;99.90;;;;;;5095928;28;20179;-79
2023/04/09 09:06:31;;;;;;;28.08;23.85;;;28.20;99.90;;;;;;5094098;28;20171;-78
2023/04/09 09:09:09;;;;;;;27.10;24.10;;;28.20;99.90;;;;;;5095584;28;20172;-78
2023/04/09 09:11:37;;;;;;;26.08;23.48;;;27.50;99.90;;;;;;5095481;28;20172;-79
2023/04/09 09:14:22;;;;;;;26.77;24.05;;;27.60;99.90;;;;;;5095053;28;20566;-78
2023/04/09 09:16:56;;;;;;;26.02;23.42;;;27.70;99.90;;;;;;5094691;28;20161;-78
2023/04/09 09:19:25;;;;;;;26.40;23.08;;;28.70;99.90;;;;;;5095176;28;20225;-77
2023/04/09 09:22:01;;;;;;;26.33;23.27;;;28.50;99.90;;;;;;5094979;28;20249;-78
2023/04/09 09:24:27;;;;;;;25.05;22.55;;;27.80;99.90;;;;;;5093903;28;20481;-78
2023/04/09 09:26:53;;;;;;;23.52;21.02;;;28.30;99.90;;;;;;5094783;28;20168;-77
2023/04/09 09:29:20;;;;;;;23.98;21.58;;;28.60;99.90;;;;;;5095173;28;20172;-79
2023/04/09 09:31:50;;;;;;;23.75;21.45;;;28.70;99.90;;;;;;5094669;28;20172;-78
2023/04/09 09:34:17;;;;;;;23.35;21.05;;;28.30;99.90;;;;;;5095222;28;20247;-77
2023/04/09 09:36:44;;;;;;;22.20;20.00;;;26.70;99.90;;;;;;5094605;28;20707;-77
2023/04/09 09:39:16;;;;;;;24.08;21.65;;;26.00;99.90;;;;;;5094513;28;20232;-78
2023/04/09 09:41:42;;;;;;;23.48;21.00;;;25.50;99.90;;;;;;5094961;28;20207;-78
2023/04/09 09:44:10;;;;;;;23.40;21.00;;;26.00;99.90;;;;;;5094779;28;20291;-78
2023/04/09 09:46:41;;;;;;;23.40;20.80;;;26.50;99.90;;;;;;5094935;28;20263;-76
2023/04/09 09:49:07;;;;;;;23.52;20.92;;;27.10;99.90;;;;;;5093809;28;20210;-77
2023/04/09 09:51:36;;;;;;;23.20;20.80;;;25.90;99.90;;;;;;5094295;28;20190;-77
2023/04/09 09:54:02;;;;;;;22.95;20.50;;;24.10;99.90;;;;;;5094895;28;20168;-78
2023/04/09 09:56:34;;;;;;;24.20;21.65;;;23.90;99.90;;;;;;5093238;28;20172;-77
2023/04/09 09:59:05;;;;;;;25.42;21.67;;;23.70;99.90;;;;;;5093737;28;20686;-77
2023/04/09 10:01:31;;;;;;;23.83;21.25;;;23.60;99.90;;;;;;5092822;28;20208;-77
2023/04/09 10:04:00;;;;;;;22.80;20.55;;;24.70;99.90;;;;;;5094390;28;20172;-78
2023/04/09 10:06:26;;;;;;;23.63;21.13;;;24.30;99.90;;;;;;5094047;28;20180;-78
2023/04/09 10:08:57;;;;;;;23.15;20.05;;;24.90;99.90;;;;;;5094001;28;20179;-78
2023/04/09 10:11:23;;;;;;;21.63;19.52;;;26.10;99.90;;;;;;5094472;28;20175;-77
2023/04/09 10:13:57;;;;;;;21.63;19.33;;;26.60;99.90;;;;;;5094143;28;20662;-77
2023/04/09 10:16:24;;;;;;;22.63;20.42;;;27.30;99.90;;;;;;5092943;28;20179;-77
2023/04/09 10:18:50;;;;;;;21.70;19.27;;;27.30;99.90;;;;;;5094467;28;20229;-77
2023/04/09 10:21:32;;;;;;;22.65;20.25;;;27.70;99.90;;;;;;5093701;28;20298;-76
2023/04/09 10:23:58;;;;;;;21.67;18.75;;;27.80;99.90;;;;;;5094228;28;20179;-76
2023/04/09 10:26:29;;;;;;;21.85;19.55;;;28.20;99.90;;;;;;5093704;28;20172;-76
2023/04/09 10:29:15;;;;;;;22.02;19.73;;;27.60;99.90;;;;;;5093536;28;20167;-78
2023/04/09 10:32:03;;;;;;;20.90;18.90;;;28.00;99.90;;;;;;5092924;28;20194;-77
2023/04/09 10:34:36;;;;;;;21.35;19.27;;;26.60;99.90;;;;;;5093669;28;20167;-76
2023/04/09 10:37:02;;;;;;;23.55;20.98;;;26.80;99.90;;;;;;5093146;28;20352;-77
2023/04/09 10:39:32;;;;;;;24.30;20.95;;;26.20;99.90;;;;;;5093853;28;20164;-77
2023/04/09 10:42:03;;;;;;;21.92;19.83;;;26.50;99.90;;;;;;5093029;28;20245;-75
2023/04/09 10:44:31;;;;;;;22.63;20.20;;;26.10;99.90;;;;;;5092215;28;20188;-76
2023/04/09 10:46:57;;;;;;;22.90;20.45;;;26.20;99.90;;;;;;5092767;28;20187;-76
2023/04/09 10:49:25;;;;;;;22.00;19.70;;;26.30;99.90;;;;;;5093249;28;20202;-76
2023/04/09 10:52:02;;;;;;;21.50;18.92;;;25.80;99.90;;;;;;5093034;28;20175;-77
2023/04/09 10:54:33;;;;;;;20.23;18.20;;;26.20;99.90;;;;;;5093673;28;20223;-76
2023/04/09 10:57:21;;;;;;;20.45;18.38;;;26.00;99.90;;;;;;5092674;28;20712;-77
2023/04/09 10:59:51;;;;;;;20.05;18.00;;;27.00;99.90;;;;;;5093416;28;20179;-76
2023/04/09 11:03:01;;;;;;;32.75;23.77;;;26.70;99.90;;;;;;5092929;28;20239;-76
2023/04/09 11:05:37;;;;;;;22.70;20.20;;;25.60;99.90;;;;;;5011109;28;20174;-76
2023/04/09 11:08:11;;;;;;;22.73;19.70;;;24.10;99.90;;;;;;5011025;28;20196;-76
2023/04/09 11:10:38;;;;;;;23.52;19.88;;;23.80;99.90;;;;;;5062848;28;20179;-76
2023/04/09 11:13:04;;;;;;;21.42;19.15;;;24.10;99.90;;;;;;5092645;28;20172;-76
2023/04/09 11:15:31;;;;;;;22.50;20.30;;;23.80;99.90;;;;;;5093153;28;20204;-75
2023/04/09 11:17:57;;;;;;;22.63;20.23;;;22.70;99.90;;;;;;5092476;28;20163;-75
2023/04/09 11:20:24;;;;;;;23.13;20.73;;;22.70;1.00;;;;;;5091810;28;20507;-75
2023/04/09 11:22:51;;;;;;;23.80;19.77;;;22.10;1.00;;;;;;5092666;28;20252;-76
2023/04/09 11:25:25;;;;;;;21.83;18.95;;;23.00;1.00;;;;;;5093114;28;20515;-75
2023/04/09 11:27:51;;;;;;;19.83;17.67;;;24.10;99.90;;;;;;5092354;28;20654;-75
2023/04/09 11:30:17;;;;;;;21.20;18.98;;;22.90;99.90;;;;;;5092549;28;20168;-74
2023/04/09 11:32:43;;;;;;;20.17;18.05;;;21.30;1.00;;;;;;5091536;28;20651;-75
2023/04/09 11:35:17;;;;;;;20.95;18.63;;;21.20;99.90;;;;;;5092734;28;20172;-76
2023/04/09 11:37:44;;;;;;;21.55;18.95;;;22.40;1.00;;;;;;5092190;28;20219;-74
2023/04/09 11:40:24;;;;;;;21.83;19.48;;;21.80;1.00;;;;;;5092668;28;20164;-74
2023/04/09 11:42:52;;;;;;;23.42;20.58;;;22.10;1.00;;;;;;5093898;28;20190;-74
2023/04/09 11:45:21;;;;;;;23.65;19.95;;;21.50;1.00;;;;;;5099266;28;20650;-74
2023/04/09 11:47:47;;;;;;;22.02;19.70;;;20.80;99.90;;;;;;5099024;28;20221;-74
2023/04/09 11:50:15;;;;;;;18.52;16.73;;;21.30;88.10;;;;;;5099383;28;20176;-74
2023/04/09 11:52:42;;;;;;;19.63;17.08;;;21.30;60.20;;;;;;5099016;28;20164;-74
2023/04/09 11:55:09;;;;;;;17.63;15.82;;;21.20;1.00;;;;;;5099443;28;20171;-74
2023/04/09 11:57:44;;;;;;;16.40;14.60;;;21.40;1.00;;;;;;5097617;28;20665;-75
2023/04/09 12:00:14;;;;;;;18.23;14.93;;;21.10;1.00;;;;;;5099462;28;20167;-74
2023/04/09 12:02:50;;;;;;;18.45;15.23;;;20.80;99.90;;;;;;5099238;28;20235;-74
2023/04/09 12:05:36;;;;;;;17.55;15.75;;;20.40;99.90;;;;;;5099361;28;20171;-75
2023/04/09 12:08:07;;;;;;;18.02;16.13;;;20.20;1.00;;;;;;5098826;28;20168;-74
2023/04/09 12:10:36;;;;;;;17.15;15.35;;;20.40;1.00;;;;;;5098815;28;20262;-74
2023/04/09 12:13:04;;;;;;;19.30;15.90;;;20.20;1.00;;;;;;5099457;28;20178;-74
2023/04/09 12:15:35;;;;;;;17.35;15.50;;;20.70;99.90;;;;;;5098994;28;20229;-74
2023/04/09 12:18:02;;;;;;;17.15;15.35;;;20.90;99.90;;;;;;5098969;28;20221;-74
2023/04/09 12:20:35;;;;;;;19.48;16.20;;;20.70;99.90;;;;;;5098801;28;20514;-75
2023/04/09 12:23:03;;;;;;;15.93;14.23;;;20.90;99.90;;;;;;5099031;28;20655;-75
2023/04/09 12:25:30;;;;;;;15.25;13.65;;;20.50;99.90;;;;;;5098804;28;20199;-75
2023/04/09 12:27:57;;;;;;;14.95;13.35;;;20.20;99.90;;;;;;5098922;28;20190;-75
2023/04/09 12:30:23;;;;;;;15.52;13.77;;;20.00;1.00;;;;;;5097900;28;20654;-76
2023/04/09 12:32:50;;;;;;;13.90;12.43;;;19.90;1.00;;;;;;5098615;28;20221;-75
2023/04/09 12:35:19;;;;;;;14.68;13.10;;;20.20;1.00;;;;;;5098822;28;20203;-75
2023/04/09 12:37:46;;;;;;;16.33;12.73;;;20.20;1.00;;;;;;5098491;28;20285;-74
2023/04/09 12:40:12;;;;;;;15.52;13.88;;;20.40;99.90;;;;;;5098081;28;20217;-74